KRDM/RDM METAR and TAF weather

Enter ICAO airport designator
Station Type Date Time Source
KRDM METAR 2020/07/06 07:56 UTC NOAA

KRDM 060756Z AUTO 00000KT 10SM CLR 12/06 A3007 RMK AO2 SLP163 T01170056 402890056


Station Type Date Time Source
KRDM Decoded METAR 2020/07/06 07:56 UTC NOAA

REDMOND ROBERTS FIELD, OR, United States (KRDM) 44-15N 121-08W
Jul 06, 2020 - 03:56 AM EDT / 2020.07.06 0756 UTC
Wind: Calm:0
Visibility: 10 mile(s):0
Sky conditions: clear
Temperature: 53.1 F (11.7 C)
Dew Point: 42.1 F (5.6 C)
Relative Humidity: 66%
Pressure (altimeter): 30.07 in. Hg (1018 hPa)
ob: KRDM 060756Z AUTO 00000KT 10SM CLR 12/06 A3007 RMK AO2 SLP163 T01170056 402890056
cycle: 8

Station Type Date Time Source
KRDM TAF 2020/07/06 06:27 UTC NOAA

TAF KRDM 060521Z 0606/0706 VRB04KT P6SM SKC
FM062100 33011G18KT P6SM FEW250
FM070000 32016G22KT P6SM BKN250

Example: see airport list